»·PEaware :: SWA1865 KDEN-KSLC

SWA1865 :: KDEN-KSLC

FLIGHT INFORMATION

Flight Status: Arrived
Operator:
Southwest Airlines
More flights by this operator :: More flights under this callsign
Pilot: Ben L. (6391)
Aircraft: BOEING 737-800
(B738)
More flights by this aircraft type
Origin: KDEN Denver Intl
United States
Destination: KSLC Salt Lake City Intl
United States
More flights between these airports :: More routes between these airports
Route: FOOOT4 RLG EKR LEEHY5
File this flight plan on PilotEdge
Remarks:
Altitude:
(Current/Filed)
34,000ft
Speed:
(Current/Filed)
455kts
Departed: 05-Dec-19 01:33 PM
Arrived: 05-Dec-19 02:39 PM
Distance/Time
Traveled:
339nm/1:06
Distance/Time
To Go:
Arrived

Flight Plot

Page will automatically refresh every two minutes.

Flight plan parsing failed; only flown route is shown


Map Options




Map Legend


Flown Route
Filed Route
Departure Airport
Arrival Airport
Navaid (VOR, NDB)
Fix

Horizontal Profiles

Position Reports

Time Latitude Longitude Heading Altitude Ground
Speed
05-Dec-19 13:11 39.863582 -104.676837 180 5378ft 0kts
05-Dec-19 13:12 39.863582 -104.676837 180 5378ft 0kts
05-Dec-19 13:13 39.863582 -104.676837 180 5378ft 0kts
05-Dec-19 13:14 39.863582 -104.676837 180 5378ft 0kts
05-Dec-19 13:15 39.863582 -104.676837 180 5378ft 0kts
05-Dec-19 13:16 39.863582 -104.676837 180 5378ft 0kts
05-Dec-19 13:17 39.863582 -104.676837 180 5378ft 0kts
05-Dec-19 13:18 39.863582 -104.676837 180 5378ft 0kts
05-Dec-19 13:19 39.863582 -104.676837 180 5378ft 0kts
05-Dec-19 13:20 39.863582 -104.676837 180 5378ft 0kts
05-Dec-19 13:21 39.863582 -104.676837 180 5378ft 0kts
05-Dec-19 13:22 39.864062 -104.676499 237 5378ft 2kts
05-Dec-19 13:23 39.864155 -104.675977 273 5378ft 0kts
05-Dec-19 13:24 39.864155 -104.675978 273 5378ft 0kts
05-Dec-19 13:25 39.864155 -104.675978 273 5378ft 0kts
05-Dec-19 13:26 39.864158 -104.676086 271 5378ft 5kts
05-Dec-19 13:27 39.864792 -104.680868 266 5373ft 11kts
05-Dec-19 13:28 39.864248 -104.683772 270 5367ft 16kts
05-Dec-19 13:29 39.864263 -104.685632 267 5366ft 0kts
05-Dec-19 13:30 39.864261 -104.686020 269 5365ft 2kts
05-Dec-19 13:31 39.864586 -104.687172 354 5365ft 3kts
05-Dec-19 13:32 39.889590 -104.687134 0 5651ft 169kts
05-Dec-19 13:33 39.929269 -104.719622 280 7234ft 238kts
05-Dec-19 13:35 39.935359 -104.818504 277 9099ft 290kts
05-Dec-19 13:36 39.943911 -104.926453 273 10739ft 313kts
05-Dec-19 13:37 39.952949 -105.046431 277 12728ft 341kts
05-Dec-19 13:38 39.967372 -105.169874 278 15413ft 351kts
05-Dec-19 13:39 39.982146 -105.297889 277 17832ft 364kts
05-Dec-19 13:40 39.982147 -105.430869 267 19987ft 377kts
05-Dec-19 13:41 39.977909 -105.568254 268 22015ft 389kts
05-Dec-19 13:42 39.973970 -105.704770 269 23795ft 399kts
05-Dec-19 13:43 39.971317 -105.851593 270 25554ft 409kts
05-Dec-19 13:44 39.979053 -106.000069 275 27053ft 419kts
05-Dec-19 13:45 39.987491 -106.153100 275 28444ft 429kts
05-Dec-19 13:46 39.995912 -106.309589 275 29715ft 438kts
05-Dec-19 13:47 40.004232 -106.469401 275 30952ft 445kts
05-Dec-19 13:48 40.011949 -106.629901 275 32357ft 444kts
05-Dec-19 13:49 40.019342 -106.783046 274 33601ft 443kts
05-Dec-19 13:50 40.026037 -106.925617 275 34149ft 439kts
05-Dec-19 13:51 40.032958 -107.076536 276 34152ft 432kts
05-Dec-19 13:52 40.039672 -107.227598 276 34151ft 434kts
05-Dec-19 13:53 40.046851 -107.394093 276 34147ft 433kts
05-Dec-19 13:54 40.053364 -107.550020 276 34141ft 433kts
05-Dec-19 13:54 40.058395 -107.674174 275 34147ft 433kts
05-Dec-19 13:56 40.065267 -107.849513 275 34153ft 434kts
05-Dec-19 13:57 40.071219 -108.004922 276 34151ft 434kts
05-Dec-19 13:57 40.077037 -108.133181 276 34151ft 433kts
05-Dec-19 13:58 40.083894 -108.286815 276 34151ft 434kts
05-Dec-19 14:00 40.091844 -108.471216 276 34148ft 434kts
05-Dec-19 14:00 40.097322 -108.602649 276 34149ft 433kts
05-Dec-19 14:01 40.102362 -108.726484 275 34158ft 430kts
05-Dec-19 14:03 40.109375 -108.906013 275 34161ft 435kts
05-Dec-19 14:03 40.113917 -109.036373 275 34156ft 429kts
05-Dec-19 14:04 40.119486 -109.187955 275 34153ft 410kts
05-Dec-19 14:05 40.124668 -109.332459 275 34157ft 409kts
05-Dec-19 14:06 40.129638 -109.478589 275 34153ft 411kts
05-Dec-19 14:07 40.134449 -109.623658 275 34153ft 409kts
05-Dec-19 14:08 40.138703 -109.758540 275 34159ft 411kts
05-Dec-19 14:09 40.142465 -109.881076 275 34158ft 410kts
05-Dec-19 14:10 40.146947 -110.032558 275 34157ft 410kts
05-Dec-19 14:11 40.149118 -110.188178 272 34156ft 411kts
05-Dec-19 14:12 40.147513 -110.336626 272 34155ft 411kts
05-Dec-19 14:13 40.146213 -110.483435 272 34160ft 412kts
05-Dec-19 14:14 40.144684 -110.633727 272 34176ft 417kts
05-Dec-19 14:15 40.143029 -110.774124 272 34186ft 415kts
05-Dec-19 14:16 40.141184 -110.920382 271 31629ft 428kts
05-Dec-19 14:17 40.139055 -111.072609 271 28550ft 422kts
05-Dec-19 14:18 40.136774 -111.221043 270 25708ft 409kts
05-Dec-19 14:19 40.133848 -111.367163 270 22831ft 396kts
05-Dec-19 14:20 40.131610 -111.509147 273 20004ft 383kts
05-Dec-19 14:21 40.162212 -111.634147 294 19239ft 354kts
05-Dec-19 14:22 40.202993 -111.744751 294 19237ft 356kts
05-Dec-19 14:23 40.244935 -111.858649 294 19128ft 351kts
05-Dec-19 14:24 40.302744 -111.958408 322 17034ft 348kts
05-Dec-19 14:25 40.385833 -112.024333 327 16271ft 345kts
05-Dec-19 14:26 40.479069 -112.057660 351 14932ft 353kts
05-Dec-19 14:27 40.578876 -112.070871 352 12412ft 368kts
05-Dec-19 14:28 40.676891 -112.083236 353 10991ft 330kts
05-Dec-19 14:29 40.767620 -112.093738 353 10988ft 332kts
05-Dec-19 14:30 40.856457 -112.102085 355 10539ft 300kts
05-Dec-19 14:31 40.937309 -112.108203 355 9519ft 279kts
05-Dec-19 14:32 41.009166 -112.103191 36 8549ft 250kts
05-Dec-19 14:33 41.010122 -112.029059 138 7600ft 220kts
05-Dec-19 14:34 40.962556 -111.992332 179 7002ft 201kts
05-Dec-19 14:35 40.908118 -111.988798 174 6247ft 187kts
05-Dec-19 14:36 40.859942 -111.983051 175 5290ft 163kts
05-Dec-19 14:37 40.817083 -111.977945 175 4433ft 156kts
05-Dec-19 14:38 40.787527 -111.974672 180 4238ft 33kts
05-Dec-19 14:39 40.784620 -111.975753 238 4237ft 3kts
05-Dec-19 14:40 40.789042 -111.976953 356 4238ft 23kts
05-Dec-19 14:41 40.789789 -111.983245 265 4238ft 22kts
05-Dec-19 14:42 40.787557 -111.987654 261 4237ft 14kts
05-Dec-19 14:43 40.785033 -111.986408 18 4237ft 2kts
05-Dec-19 14:44 40.785275 -111.986453 344 4237ft 0kts

Navigation Log

Ident Type
Flight plan parsing failed, navigation log unavailable